Pagrindinis puslapis
METAR-TAF:

METAR-TAF

Oro uostai :

Chillán, Čilė

platuma: 36-34S, ilguma: 072-02W, Aukštis: 124 m

Dabartinis oras

Ataskaita buvo paskelbta 47 minutes, ne 23:00 UTC
Vėjas 4 kt iš Pietų
Temperatūra 6°C
Drėgmė 100%
Slėgis 1019 hPa
Matomumas 10 km arba daugiau
Mažai debesys ne aukštis 3400 ft
Apsiniaukę ne aukštis 4000 ft
lietus

METAR: SCCH 022300Z AUTO 19004KT 9999 RA FEW034 OVC040 06/06 Q1019 RERA

Laikas: 19:47 (23:47 UTC)


TAF: trūkstamas

Orai ataskaitas ir orų prognozės (METAR, TAF).

turimą stotys yra geltonos ir raudonos taškus žemėlapyje.

Perkelti pele per norėdami pamatyti stoties vardą.

Tada spustelėkite, norėdami matyti oro stebėjimo ir prognozės.

Norėdami pakeisti žemėlapį: spustelėkite ant žalios mygtukų su juodo kryžiaus žemyn,; žalią mygtuką su brūkšneliu, jei norite nutolinti; arba žalių rodyklių gretimoms žemėlapius.


METAR-TAF: